Time;durP1;ratioP1;P1;durP2;ratioP2;P2;SDS_P1;SDS_P2;PMS_P1;PMS_P2;Temp;Humidity;BMP_temperature;BMP_pressure;BME280_temperature;BME280_humidity;BME280_pressure;Samples;Min_cycle;Max_cycle;Signal;HPM_P1;HPM_P2
2022/10/23 00:01:31;;;;;;;37.38;19.37;;;;;;;9.82;100.00;99140.03;4485200;31;20413;-68
2022/10/23 00:04:00;;;;;;;41.72;19.73;;;;;;;9.86;100.00;99149.28;4495234;31;20149;-69
2022/10/23 00:06:28;;;;;;;34.72;20.15;;;;;;;9.78;100.00;99136.81;4501775;31;20084;-69
2022/10/23 00:08:55;;;;;;;35.50;20.37;;;;;;;9.84;100.00;99153.78;4487194;31;20092;-69
2022/10/23 00:11:26;;;;;;;41.85;20.95;;;;;;;9.81;100.00;99149.66;4485715;31;20156;-69
2022/10/23 00:13:54;;;;;;;42.25;20.45;;;;;;;9.72;100.00;99145.13;4485882;31;20574;-69
2022/10/23 00:16:21;;;;;;;43.92;21.17;;;;;;;9.72;100.00;99151.22;4484860;32;20149;-69
2022/10/23 00:18:49;;;;;;;39.33;21.45;;;;;;;9.63;100.00;99159.81;4485953;32;20535;-69
2022/10/23 00:21:16;;;;;;;40.70;21.90;;;;;;;9.61;100.00;99156.47;4485966;31;20096;-69
2022/10/23 00:23:44;;;;;;;39.35;19.77;;;;;;;9.68;100.00;99156.81;4485930;31;20096;-69
2022/10/23 00:26:15;;;;;;;36.63;19.75;;;;;;;9.62;100.00;99158.12;4485637;31;20084;-69
2022/10/23 00:28:43;;;;;;;37.88;19.50;;;;;;;9.59;100.00;99147.91;4485704;31;20088;-69
2022/10/23 00:31:11;;;;;;;38.22;20.30;;;;;;;9.55;100.00;99151.72;4485891;31;20100;-69
2022/10/23 00:33:40;;;;;;;46.88;20.55;;;;;;;9.40;100.00;99151.97;4485919;31;20115;-69
2022/10/23 00:36:09;;;;;;;35.63;19.00;;;;;;;9.44;100.00;99143.91;4485853;31;20093;-69
2022/10/23 00:38:37;;;;;;;36.80;19.37;;;;;;;9.52;100.00;99151.97;4485757;32;20088;-69
2022/10/23 00:41:06;;;;;;;37.53;20.05;;;;;;;9.33;100.00;99156.03;4485938;31;20135;-69
2022/10/23 00:43:52;;;;;;;33.47;18.00;;;;;;;9.41;100.00;99152.81;4485610;31;20101;-69
2022/10/23 00:46:20;;;;;;;39.75;19.85;;;;;;;9.28;100.00;99166.03;4484336;32;20551;-69
2022/10/23 00:48:47;;;;;;;41.85;19.62;;;;;;;9.30;100.00;99169.34;4485536;31;20182;-69
2022/10/23 00:51:14;;;;;;;38.90;19.10;;;;;;;9.25;100.00;99176.72;4485679;31;20096;-69
2022/10/23 00:53:42;;;;;;;37.70;19.05;;;;;;;9.34;100.00;99169.91;4485623;31;20123;-69
2022/10/23 00:56:10;;;;;;;32.65;18.05;;;;;;;9.31;100.00;99181.47;4485454;31;20492;-69
2022/10/23 00:58:37;;;;;;;34.80;19.35;;;;;;;9.25;100.00;99187.16;4485830;31;20112;-69
2022/10/23 01:01:17;;;;;;;34.97;18.90;;;;;;;9.24;100.00;99182.88;4485320;31;20752;-69
2022/10/23 01:03:46;;;;;;;34.63;17.70;;;;;;;9.39;100.00;99189.53;4493090;31;20096;-69
2022/10/23 01:06:30;;;;;;;33.30;18.42;;;;;;;9.26;100.00;99196.66;4501140;31;20080;-69
2022/10/23 01:09:03;;;;;;;31.37;17.90;;;;;;;9.19;100.00;99195.47;4486757;31;20170;-69
2022/10/23 01:11:38;;;;;;;34.72;19.75;;;;;;;9.08;100.00;99201.50;4485679;31;20092;-69
2022/10/23 01:14:24;;;;;;;;;;;;;;;9.03;100.00;99207.09;4485872;32;20089;-69
2022/10/23 01:17:02;;;;;;;29.95;16.37;;;;;;;8.99;100.00;99210.91;4485614;32;20333;-69
2022/10/23 01:19:52;;;;;;;29.05;16.85;;;;;;;8.94;100.00;99209.56;4485550;31;20106;-69
2022/10/23 01:22:53;;;;;;;28.35;15.90;;;;;;;8.96;100.00;99200.69;4481289;32;20123;-69
2022/10/23 01:25:54;;;;;;;33.35;17.42;;;;;;;9.14;100.00;99206.25;4485320;31;20142;-69
2022/10/23 01:28:27;;;;;;;34.58;16.05;;;;;;;9.14;100.00;99211.50;4485404;31;20122;-69
2022/10/23 01:30:57;;;;;;;27.52;16.58;;;;;;;9.14;100.00;99211.50;4484305;32;20442;-69
2022/10/23 01:33:39;;;;;;;35.42;16.58;;;;;;;9.15;100.00;99202.72;4484315;32;20104;-68
2022/10/23 01:36:13;;;;;;;29.23;16.23;;;;;;;9.04;100.00;99208.75;4484162;32;20093;-69
2022/10/23 01:38:45;;;;;;;31.45;16.98;;;;;;;9.28;100.00;99204.38;4485360;31;20604;-69
2022/10/23 01:41:17;;;;;;;32.63;17.67;;;;;;;9.26;100.00;99204.50;4483837;32;20457;-69
2022/10/23 01:43:48;;;;;;;34.08;17.10;;;;;;;9.28;100.00;99207.00;4484021;32;20123;-69
2022/10/23 01:46:16;;;;;;;36.83;17.77;;;;;;;9.30;100.00;99211.16;4484178;32;20108;-69
2022/10/23 01:48:52;;;;;;;35.22;17.95;;;;;;;9.23;100.00;99210.81;4485224;31;20161;-69
2022/10/23 01:51:21;;;;;;;34.75;18.40;;;;;;;9.23;100.00;99209.97;4485239;31;20098;-69
2022/10/23 01:53:51;;;;;;;32.15;17.20;;;;;;;9.31;100.00;99209.37;4485449;31;20125;-69
2022/10/23 01:56:22;;;;;;;35.63;17.87;;;;;;;9.32;100.00;99204.03;4484120;32;20108;-69
2022/10/23 01:58:51;;;;;;;30.40;17.60;;;;;;;9.40;100.00;99208.66;4484947;31;20084;-69
2022/10/23 02:01:21;;;;;;;30.42;17.50;;;;;;;9.44;100.00;99207.47;4484006;32;20163;-69
2022/10/23 02:03:51;;;;;;;32.00;17.40;;;;;;;9.35;100.00;99209.00;4493220;31;20099;-69
2022/10/23 02:06:18;;;;;;;34.22;17.77;;;;;;;9.48;100.00;99211.53;4501053;31;20088;-69
2022/10/23 02:08:45;;;;;;;31.83;18.65;;;;;;;9.48;100.00;99197.59;4486146;31;20100;-69
2022/10/23 02:11:16;;;;;;;36.63;19.15;;;;;;;9.46;100.00;99202.13;4485036;31;20119;-69
2022/10/23 02:14:07;;;;;;;32.75;18.98;;;;;;;9.41;100.00;99200.69;4484901;31;20111;-69
2022/10/23 02:16:39;;;;;;;32.65;18.87;;;;;;;9.44;100.00;99204.03;4484111;32;20122;-69
2022/10/23 02:19:34;;;;;;;34.17;18.77;;;;;;;9.52;100.00;99205.12;4483765;32;20137;-69
2022/10/23 02:22:16;;;;;;;31.17;17.33;;;;;;;9.58;100.00;99209.00;4483923;32;20115;-69
2022/10/23 02:25:03;;;;;;;31.92;18.12;;;;;;;9.56;100.00;99205.69;4483627;32;20100;-69
2022/10/23 02:27:44;;;;;;;32.83;17.52;;;;;;;9.44;100.00;99201.44;4484815;31;20155;-69
2022/10/23 02:30:13;;;;;;;32.30;17.20;;;;;;;9.39;100.00;99214.84;4483475;32;20160;-69
2022/10/23 02:32:46;;;;;;;30.05;17.20;;;;;;;9.30;100.00;99220.81;4483726;32;20498;-69
2022/10/23 02:35:17;;;;;;;30.33;17.60;;;;;;;9.11;100.00;99222.19;4483813;32;20406;-69
2022/10/23 02:37:55;;;;;;;28.38;16.80;;;;;;;8.98;100.00;99221.47;4484811;32;20501;-69
2022/10/23 02:40:25;;;;;;;28.70;16.45;;;;;;;8.89;100.00;99223.00;4484979;31;20096;-69
2022/10/23 02:43:11;;;;;;;25.80;15.10;;;;;;;8.82;100.00;99227.81;4483337;32;20089;-69
2022/10/23 02:45:49;;;;;;;28.05;16.23;;;;;;;8.69;100.00;99233.16;4483789;32;20450;-69
2022/10/23 02:48:21;;;;;;;25.25;15.13;;;;;;;8.66;100.00;99249.03;4483614;32;20149;-69
2022/10/23 02:50:57;;;;;;;25.55;15.65;;;;;;;8.51;100.00;99251.00;4483648;32;20118;-69
2022/10/23 02:53:49;;;;;;;27.33;14.82;;;;;;;8.43;100.00;99257.69;4486088;31;20458;-69
2022/10/23 02:56:30;;;;;;;23.45;14.32;;;;;;;8.30;100.00;99257.75;4486368;31;20586;-69
2022/10/23 02:59:19;;;;;;;24.02;14.70;;;;;;;8.32;100.00;99261.91;4485352;32;20096;-69
2022/10/23 03:01:59;;;;;;;24.08;14.45;;;;;;;8.26;100.00;99251.91;4485109;32;20130;-69
2022/10/23 03:04:27;;;;;;;24.23;14.48;;;;;;;8.25;100.00;99265.91;4485032;32;20471;-69
2022/10/23 03:06:54;;;;;;;21.83;13.50;;;;;;;8.21;100.00;99263.63;4485242;32;20135;-69
2022/10/23 03:09:21;;;;;;;22.90;13.25;;;;;;;8.15;100.00;99264.91;4485044;32;20208;-69
2022/10/23 03:11:49;;;;;;;23.10;13.62;;;;;;;8.09;100.00;99260.13;4486226;32;20119;-69
2022/10/23 03:14:17;;;;;;;25.80;14.02;;;;;;;8.00;100.00;99259.81;4486507;31;20449;-69
2022/10/23 03:16:44;;;;;;;24.83;13.50;;;;;;;7.92;100.00;99269.97;4486313;31;20155;-69
2022/10/23 03:19:11;;;;;;;23.08;13.40;;;;;;;7.86;100.00;99269.53;4486154;31;20114;-69
2022/10/23 03:21:39;;;;;;;24.37;14.38;;;;;;;7.80;100.00;99265.62;4486218;31;20096;-69
2022/10/23 03:24:06;;;;;;;26.67;15.27;;;;;;;7.93;100.00;99271.66;4485997;32;20164;-69
2022/10/23 03:26:34;;;;;;;32.70;16.12;;;;;;;7.85;100.00;99262.69;4486127;31;20085;-69
2022/10/23 03:29:01;;;;;;;30.00;15.38;;;;;;;7.84;100.00;99266.22;4486034;31;20116;-69
2022/10/23 03:31:28;;;;;;;27.85;17.12;;;;;;;7.80;100.00;99269.03;4485848;31;20100;-69
2022/10/23 03:33:55;;;;;;;28.55;17.48;;;;;;;7.81;100.00;99267.25;4486436;31;20132;-69
2022/10/23 03:36:23;;;;;;;33.92;16.58;;;;;;;7.85;100.00;99266.12;4484708;32;20112;-69
2022/10/23 03:38:50;;;;;;;31.77;17.73;;;;;;;7.84;100.00;99272.25;4486425;31;20446;-69
2022/10/23 03:41:17;;;;;;;34.70;17.65;;;;;;;7.91;100.00;99264.84;4486076;31;20525;-69
2022/10/23 03:43:44;;;;;;;33.33;17.98;;;;;;;7.92;100.00;99262.13;4485990;31;20119;-69
2022/10/23 03:46:11;;;;;;;32.90;17.42;;;;;;;7.88;100.00;99271.13;4485861;31;20118;-69
2022/10/23 03:48:40;;;;;;;35.35;16.45;;;;;;;7.84;100.00;99268.81;4486112;31;20096;-69
2022/10/23 03:51:08;;;;;;;31.23;17.15;;;;;;;7.87;100.00;99273.81;4486317;31;20510;-69
2022/10/23 03:53:35;;;;;;;32.22;16.37;;;;;;;7.98;100.00;99274.75;4485977;31;20135;-69
2022/10/23 03:56:03;;;;;;;32.08;16.62;;;;;;;8.01;100.00;99263.28;4485786;32;20500;-69
2022/10/23 03:58:32;;;;;;;38.50;17.70;;;;;;;8.10;100.00;99266.97;4486084;31;20096;-69
2022/10/23 04:00:59;;;;;;;34.15;17.23;;;;;;;8.13;100.00;99278.06;4485912;31;20103;-69
2022/10/23 04:03:26;;;;;;;33.13;17.83;;;;;;;8.14;100.00;99282.31;4491072;31;20156;-69
2022/10/23 04:05:53;;;;;;;29.92;17.80;;;;;;;7.99;100.00;99279.03;4501821;31;20123;-69
2022/10/23 04:08:21;;;;;;;31.23;17.08;;;;;;;7.86;100.00;99279.97;4490047;31;20119;-69
2022/10/23 04:10:48;;;;;;;31.35;16.85;;;;;;;7.83;100.00;99270.63;4486044;31;20100;-69
2022/10/23 04:13:17;;;;;;;31.52;17.33;;;;;;;7.81;100.00;99267.25;4486112;32;20104;-69
2022/10/23 04:15:48;;;;;;;36.72;17.25;;;;;;;7.91;100.00;99260.47;4485638;32;20148;-69
2022/10/23 04:18:16;;;;;;;32.40;17.05;;;;;;;8.00;100.00;99257.19;4485980;31;20111;-69
2022/10/23 04:20:46;;;;;;;27.73;15.25;;;;;;;8.08;100.00;99267.09;4485858;31;20107;-69
2022/10/23 04:23:14;;;;;;;36.40;16.67;;;;;;;8.15;100.00;99270.13;4486143;31;20164;-69
2022/10/23 04:25:42;;;;;;;26.90;14.98;;;;;;;8.12;100.00;99267.72;4485890;31;20127;-69
2022/10/23 04:28:09;;;;;;;27.08;14.80;;;;;;;8.05;100.00;99267.31;4485765;32;20096;-69
2022/10/23 04:30:36;;;;;;;24.67;14.52;;;;;;;8.04;100.00;99267.41;4485852;31;20126;-69
2022/10/23 04:33:05;;;;;;;24.73;14.15;;;;;;;8.03;100.00;99265.78;4485657;31;20088;-69
2022/10/23 04:35:32;;;;;;;24.00;13.98;;;;;;;7.86;100.00;99275.63;4485865;31;20497;-69
2022/10/23 04:37:59;;;;;;;29.17;15.63;;;;;;;7.84;100.00;99281.88;4485736;31;20114;-69
2022/10/23 04:40:28;;;;;;;23.25;13.73;;;;;;;7.83;100.00;99275.81;4485930;31;20545;-69
2022/10/23 04:42:55;;;;;;;26.10;14.95;;;;;;;7.88;100.00;99278.13;4485854;31;20114;-69
2022/10/23 04:45:22;;;;;;;53.47;15.75;;;;;;;7.84;100.00;99276.66;4485537;31;20461;-69
2022/10/23 04:47:52;;;;;;;52.60;16.55;;;;;;;7.89;100.00;99280.62;4485768;31;20122;-69
2022/10/23 04:50:19;;;;;;;227.40;21.80;;;;;;;7.86;100.00;99286.06;4485786;31;20152;-69
2022/10/23 04:53:01;;;;;;;295.80;20.48;;;;;;;8.00;100.00;99285.06;4485612;31;20081;-69
2022/10/23 04:55:30;;;;;;;150.32;18.25;;;;;;;7.80;100.00;99291.69;4485624;31;20119;-69
2022/10/23 04:58:02;;;;;;;99.25;16.17;;;;;;;7.72;100.00;99287.00;4485760;32;20434;-69
2022/10/23 05:00:29;;;;;;;27.80;13.52;;;;;;;7.79;100.00;99290.84;4485297;31;20096;-69
2022/10/23 05:02:56;;;;;;;27.62;14.32;;;;;;;7.77;100.00;99291.91;4487436;31;20131;-69
2022/10/23 05:05:28;;;;;;;26.15;15.02;;;;;;;7.80;100.00;99287.31;4501606;31;20800;-69
2022/10/23 05:07:56;;;;;;;29.73;16.37;;;;;;;7.87;100.00;99287.69;4493281;31;20209;-69
2022/10/23 05:10:23;;;;;;;28.10;15.02;;;;;;;7.97;100.00;99278.28;4485437;31;20234;-69
2022/10/23 05:12:50;;;;;;;29.20;15.70;;;;;;;8.08;100.00;99289.75;4485486;31;20089;-69
2022/10/23 05:15:18;;;;;;;29.23;16.67;;;;;;;8.14;100.00;99286.72;4484455;31;20119;-69
2022/10/23 05:17:47;;;;;;;31.02;15.60;;;;;;;8.17;100.00;99282.13;4485318;31;20159;-69
2022/10/23 05:20:17;;;;;;;25.50;14.50;;;;;;;8.18;100.00;99296.00;4485382;32;20147;-69
2022/10/23 05:22:49;;;;;;;29.50;16.02;;;;;;;8.18;100.00;99296.00;4485724;31;20084;-69
2022/10/23 05:25:18;;;;;;;28.38;14.93;;;;;;;8.26;100.00;99296.28;4485571;31;20099;-69
2022/10/23 05:27:46;;;;;;;27.40;15.05;;;;;;;8.36;100.00;99299.06;4485321;31;20100;-69
2022/10/23 05:30:14;;;;;;;26.23;13.98;;;;;;;8.41;100.00;99281.28;4485510;31;20119;-69
2022/10/23 05:32:41;;;;;;;25.12;14.07;;;;;;;8.45;100.00;99289.78;4485608;31;20108;-69
2022/10/23 05:35:13;;;;;;;26.40;14.68;;;;;;;8.56;100.00;99289.00;4485652;31;20568;-69
2022/10/23 05:37:46;;;;;;;25.48;14.43;;;;;;;8.59;100.00;99287.00;4484323;32;20105;-69
2022/10/23 05:40:14;;;;;;;22.75;12.90;;;;;;;8.78;100.00;99290.88;4484212;32;20492;-69
2022/10/23 05:42:41;;;;;;;23.48;13.10;;;;;;;8.93;100.00;99292.34;4484361;32;20499;-69
2022/10/23 05:45:09;;;;;;;23.58;11.77;;;;;;;9.11;100.00;99300.59;4485520;31;20096;-69
2022/10/23 05:47:37;;;;;;;19.62;11.32;;;;;;;9.18;100.00;99291.34;4485468;31;20168;-69
2022/10/23 05:50:05;;;;;;;23.02;10.95;;;;;;;9.34;100.00;99298.03;4485331;32;20101;-69
2022/10/23 05:52:32;;;;;;;18.02;10.63;;;;;;;9.36;100.00;99304.00;4485133;31;20179;-69
2022/10/23 05:55:00;;;;;;;21.02;11.90;;;;;;;9.52;100.00;99299.28;4485468;31;20101;-69
2022/10/23 05:57:34;;;;;;;20.15;12.20;;;;;;;9.53;100.00;99295.69;4479939;31;158656;-69
2022/10/23 06:00:03;;;;;;;21.35;11.15;;;;;;;9.56;100.00;99305.09;4485336;31;20163;-69
2022/10/23 06:02:39;;;;;;;19.98;11.63;;;;;;;9.57;100.00;99310.22;4485089;31;20084;-69
2022/10/23 06:05:08;;;;;;;20.67;11.25;;;;;;;9.63;100.00;99321.13;4501223;31;20104;-70
2022/10/23 06:07:36;;;;;;;22.80;12.40;;;;;;;9.67;100.00;99320.78;4495140;31;20472;-69
2022/10/23 06:10:04;;;;;;;21.87;11.93;;;;;;;9.71;100.00;99318.78;4485373;31;20095;-69
2022/10/23 06:12:33;;;;;;;20.52;12.02;;;;;;;9.92;100.00;99316.28;4485259;31;20123;-69
2022/10/23 06:15:00;;;;;;;24.05;14.07;;;;;;;9.92;100.00;99311.88;4484941;31;20554;-70
2022/10/23 06:17:29;;;;;;;18.70;11.27;;;;;;;10.00;100.00;99308.66;4485018;31;20099;-69
2022/10/23 06:20:01;;;;;;;18.55;11.45;;;;;;;10.16;100.00;99315.31;4484976;32;20576;-70
2022/10/23 06:22:29;;;;;;;18.87;11.07;;;;;;;10.26;100.00;99313.63;4485118;31;20118;-69
2022/10/23 06:24:58;;;;;;;18.83;10.65;;;;;;;10.39;100.00;99311.75;4485121;31;20218;-69
2022/10/23 06:27:26;;;;;;;17.85;10.93;;;;;;;10.56;100.00;99331.34;4484690;31;20084;-69
2022/10/23 06:29:53;;;;;;;18.70;10.55;;;;;;;10.68;100.00;99332.16;4485099;31;20165;-70
2022/10/23 06:32:21;;;;;;;19.10;11.27;;;;;;;10.71;100.00;99339.75;4484499;31;20118;-70
2022/10/23 06:34:48;;;;;;;20.17;12.43;;;;;;;10.81;100.00;99348.53;4484992;31;20100;-70
2022/10/23 06:37:15;;;;;;;25.45;13.88;;;;;;;10.80;100.00;99354.72;4484787;31;20104;-69
2022/10/23 06:39:43;;;;;;;24.60;15.02;;;;;;;10.83;100.00;99354.47;4484665;31;20597;-70
2022/10/23 06:42:11;;;;;;;26.65;15.75;;;;;;;10.78;100.00;99361.91;4484922;31;20087;-70
2022/10/23 06:44:39;;;;;;;27.05;16.62;;;;;;;10.76;100.00;99369.03;4484576;31;20127;-70
2022/10/23 06:47:09;;;;;;;270.83;19.70;;;;;;;10.57;100.00;99367.06;4484825;31;20100;-70
2022/10/23 06:49:38;;;;;;;127.00;18.00;;;;;;;10.38;100.00;99367.69;4484893;31;20503;-70
2022/10/23 06:52:06;;;;;;;26.27;14.38;;;;;;;10.46;100.00;99362.69;4484394;31;20386;-70
2022/10/23 06:54:49;;;;;;;21.70;13.40;;;;;;;10.36;100.00;99364.38;4484676;31;20383;-70
2022/10/23 06:57:16;;;;;;;20.52;13.00;;;;;;;10.39;100.00;99371.97;4484321;31;20164;-69
2022/10/23 06:59:44;;;;;;;20.85;12.37;;;;;;;10.40;100.00;99368.41;4484685;31;20100;-69
2022/10/23 07:02:11;;;;;;;20.25;11.25;;;;;;;10.48;100.00;99370.44;4484280;31;20643;-69
2022/10/23 07:04:40;;;;;;;20.50;11.52;;;;;;;10.54;100.00;99369.94;4497577;31;20092;-69
2022/10/23 07:07:09;;;;;;;19.80;10.73;;;;;;;10.55;100.00;99365.50;4497576;31;20092;-69
2022/10/23 07:09:36;;;;;;;18.52;10.10;;;;;;;10.65;100.00;99369.91;4484272;31;20092;-69
2022/10/23 07:12:06;;;;;;;15.90;9.02;;;;;;;10.79;100.00;99360.91;4484526;31;20097;-69
2022/10/23 07:14:33;;;;;;;16.08;9.63;;;;;;;10.98;100.00;99367.31;4484415;31;20131;-70
2022/10/23 07:17:01;;;;;;;13.43;8.35;;;;;;;11.10;100.00;99371.56;4484409;32;20084;-70
2022/10/23 07:19:28;;;;;;;15.65;8.68;;;;;;;11.31;100.00;99376.81;4484102;32;20096;-70
2022/10/23 07:21:56;;;;;;;14.68;9.35;;;;;;;11.49;100.00;99371.00;4484141;32;20164;-70
2022/10/23 07:24:24;;;;;;;16.27;9.10;;;;;;;11.62;100.00;99382.13;4482799;32;20107;-70
2022/10/23 07:26:52;;;;;;;11.07;6.55;;;;;;;11.71;100.00;99376.09;4484208;32;20513;-70
2022/10/23 07:29:22;;;;;;;10.63;6.97;;;;;;;11.81;100.00;99380.56;4486828;31;20136;-70
2022/10/23 07:31:49;;;;;;;12.00;7.20;;;;;;;11.98;100.00;99366.06;4482742;32;20425;-69
2022/10/23 07:34:18;;;;;;;12.48;7.43;;;;;;;12.06;100.00;99364.41;4484207;31;20092;-69
2022/10/23 07:36:46;;;;;;;11.52;6.97;;;;;;;12.13;100.00;99367.38;4484375;31;20466;-69
2022/10/23 07:39:13;;;;;;;10.85;6.35;;;;;;;12.28;100.00;99367.84;4485239;32;20085;-70
2022/10/23 07:41:40;;;;;;;9.15;5.87;;;;;;;12.35;100.00;99368.13;4486503;31;20115;-69
2022/10/23 07:44:07;;;;;;;11.50;7.22;;;;;;;12.47;100.00;99359.16;4486451;31;20104;-69
2022/10/23 07:46:35;;;;;;;10.43;6.05;;;;;;;12.66;100.00;99360.19;4486402;31;20546;-70
2022/10/23 07:49:02;;;;;;;9.27;6.45;;;;;;;12.83;100.00;99359.50;4486409;31;20114;-69
2022/10/23 07:51:29;;;;;;;9.80;5.80;;;;;;;12.81;100.00;99366.72;4486473;31;20100;-70
2022/10/23 07:53:58;;;;;;;8.93;6.25;;;;;;;12.89;100.00;99361.59;4486303;31;20163;-70
2022/10/23 07:56:30;;;;;;;9.75;6.30;;;;;;;13.02;100.00;99361.34;4486413;31;20104;-70
2022/10/23 07:58:58;;;;;;;11.65;6.82;;;;;;;13.15;100.00;99363.69;4485978;31;20164;-70
2022/10/23 08:01:38;;;;;;;11.70;6.32;;;;;;;13.35;100.00;99354.00;4485887;32;20110;-70
2022/10/23 08:04:06;;;;;;;10.95;6.55;;;;;;;13.52;100.00;99355.09;4495781;31;20433;-70
2022/10/23 08:06:37;;;;;;;8.18;6.18;;;;;;;13.57;100.00;99354.66;4502094;31;20103;-69
2022/10/23 08:09:04;;;;;;;10.00;5.87;;;;;;;13.80;100.00;99355.97;4486660;31;20128;-70
2022/10/23 08:11:37;;;;;;;9.85;6.35;;;;;;;13.98;100.00;99358.69;4486112;31;20097;-70
2022/10/23 08:14:05;;;;;;;9.90;6.18;;;;;;;13.91;100.00;99362.88;4486142;31;20088;-70
2022/10/23 08:16:34;;;;;;;11.60;6.32;;;;;;;13.92;100.00;99371.62;4486169;31;20601;-70
2022/10/23 08:19:04;;;;;;;7.78;5.55;;;;;;;14.05;100.00;99360.75;4485939;32;20601;-69
2022/10/23 08:21:31;;;;;;;10.00;6.37;;;;;;;13.97;100.00;99367.59;4486051;31;20144;-70
2022/10/23 08:23:59;;;;;;;8.40;6.18;;;;;;;14.01;100.00;99361.03;4486012;31;20177;-70
2022/10/23 08:26:28;;;;;;;10.15;5.68;;;;;;;14.08;100.00;99363.09;4485861;31;20163;-69
2022/10/23 08:28:57;;;;;;;9.30;5.72;;;;;;;14.20;100.00;99359.28;4485557;32;20093;-70
2022/10/23 08:31:25;;;;;;;10.23;7.68;;;;;;;14.40;100.00;99364.47;4485692;31;20199;-70
2022/10/23 08:33:54;;;;;;;11.18;8.10;;;;;;;14.44;100.00;99363.19;4485748;31;20561;-70
2022/10/23 08:36:26;;;;;;;10.90;7.40;;;;;;;14.38;100.00;99357.56;4484719;32;20122;-70
2022/10/23 08:38:55;;;;;;;12.20;8.18;;;;;;;14.28;100.00;99369.94;4484610;32;20092;-69
2022/10/23 08:41:30;;;;;;;12.30;8.70;;;;;;;14.48;100.00;99360.13;4485847;32;20429;-69
2022/10/23 08:44:06;;;;;;;10.65;7.62;;;;;;;14.46;100.00;99359.44;4484376;32;20127;-69
2022/10/23 08:46:37;;;;;;;11.20;8.10;;;;;;;14.52;100.00;99361.50;4486129;31;20092;-70
2022/10/23 08:49:22;;;;;;;9.77;7.60;;;;;;;14.61;100.00;99354.53;4485358;31;20430;-69
2022/10/23 08:51:53;;;;;;;;;;;;;;;14.70;100.00;99342.25;4485824;31;20830;-69
2022/10/23 08:54:38;;;;;;;11.32;6.85;;;;;;;14.83;100.00;99341.88;4484548;32;19984;-69
2022/10/23 08:57:13;;;;;;;10.07;7.15;;;;;;;14.99;100.00;99349.12;4484418;32;20477;-69
2022/10/23 09:00:07;;;;;;;12.45;7.43;;;;;;;15.09;100.00;99355.16;4484377;32;20476;-69
2022/10/23 09:02:41;;;;;;;13.70;8.15;;;;;;;15.19;100.00;99352.44;4485482;31;20449;-69
2022/10/23 09:05:16;;;;;;;9.65;7.35;;;;;;;15.34;100.00;99350.09;4485453;32;20555;-69
2022/10/23 09:07:54;;;;;;;;;;;;;;;15.46;100.00;99355.94;4492153;31;20099;-69
2022/10/23 09:10:48;;;;;;;14.35;8.57;;;;;;;15.59;100.00;99353.72;4501191;31;19994;-69
2022/10/23 09:13:39;;;;;;;10.98;8.40;;;;;;;15.66;100.00;99361.88;4501286;31;20454;-69
2022/10/23 09:16:17;;;;;;;12.60;7.30;;;;;;;15.73;100.00;99366.38;4501188;31;20118;-69
2022/10/23 09:18:46;;;;;;;10.65;7.65;;;;;;;15.77;100.00;99377.44;4500060;31;20414;-69
2022/10/23 09:21:13;;;;;;;11.98;8.43;;;;;;;15.72;100.00;99375.25;4499736;31;20190;-69
2022/10/23 09:23:40;;;;;;;12.25;8.05;;;;;;;15.69;100.00;99380.03;4501199;31;20087;-69
2022/10/23 09:26:16;;;;;;;12.13;8.35;;;;;;;15.57;100.00;99387.38;4501081;31;20163;-69
2022/10/23 09:28:50;;;;;;;10.93;8.18;;;;;;;15.57;100.00;99377.63;4501148;31;20122;-69
2022/10/23 09:31:18;;;;;;;11.18;8.43;;;;;;;15.63;100.00;99383.31;4500836;31;20084;-69
2022/10/23 09:33:56;;;;;;;12.07;9.05;;;;;;;15.66;100.00;99386.44;4501031;31;20454;-69
2022/10/23 09:36:26;;;;;;;15.23;10.93;;;;;;;15.83;100.00;99383.94;4501067;31;20138;-69
2022/10/23 09:38:57;;;;;;;16.10;10.10;;;;;;;15.74;100.00;99381.22;4501155;31;20088;-69
2022/10/23 09:41:37;;;;;;;12.77;8.93;;;;;;;15.77;100.00;99386.22;4501008;31;20163;-69
2022/10/23 09:44:17;;;;;;;12.85;8.60;;;;;;;15.72;100.00;99385.84;4501187;31;20815;-69
2022/10/23 09:46:53;;;;;;;10.27;7.50;;;;;;;15.64;100.00;99382.31;4501090;31;20084;-69
2022/10/23 09:49:26;;;;;;;8.20;7.10;;;;;;;15.61;100.00;99378.19;4501314;31;20087;-69
2022/10/23 09:52:18;;;;;;;8.18;6.82;;;;;;;15.55;100.00;99378.78;4501066;31;20085;-69
2022/10/23 09:54:52;;;;;;;7.70;6.50;;;;;;;15.65;100.00;99374.22;4500872;31;20127;-69
2022/10/23 09:57:25;;;;;;;10.40;7.43;;;;;;;15.63;100.00;99373.56;4499623;31;20091;-69
2022/10/23 09:59:55;;;;;;;10.02;7.37;;;;;;;15.58;100.00;99371.38;4501032;31;20547;-69
2022/10/23 10:02:27;;;;;;;8.60;7.65;;;;;;;15.56;100.00;99378.63;4498533;31;20122;-69
2022/10/23 10:04:55;;;;;;;11.38;7.50;;;;;;;15.73;100.00;99382.22;4485950;31;20108;-69
2022/10/23 10:07:24;;;;;;;9.95;7.60;;;;;;;15.85;100.00;99376.69;4488844;31;20597;-69
2022/10/23 10:09:53;;;;;;;9.50;7.75;;;;;;;15.57;100.00;99382.09;4499933;31;20169;-69
2022/10/23 10:12:42;;;;;;;13.43;7.87;;;;;;;15.48;100.00;99383.03;4499557;31;20118;-69
2022/10/23 10:15:35;;;;;;;12.10;8.57;;;;;;;15.61;100.00;99380.81;4500898;31;20445;-69
2022/10/23 10:18:15;;;;;;;11.02;8.15;;;;;;;15.83;100.00;99376.03;4492816;31;20152;-69
2022/10/23 10:20:53;;;;;;;13.77;9.45;;;;;;;15.77;100.00;99378.28;4500858;31;20139;-69
2022/10/23 10:23:45;;;;;;;11.93;8.23;;;;;;;16.09;100.00;99374.19;4501041;31;20111;-69
2022/10/23 10:26:29;;;;;;;15.82;9.13;;;;;;;16.13;100.00;99372.06;4499426;31;20144;-69
2022/10/23 10:29:30;;;;;;;15.65;10.25;;;;;;;15.50;100.00;99360.75;4500476;31;20084;-69
2022/10/23 10:32:33;;;;;;;15.70;10.25;;;;;;;15.33;100.00;99362.44;4500592;31;20104;-69
2022/10/23 10:35:12;;;;;;;14.18;9.82;;;;;;;15.27;100.00;99363.06;4451278;32;20119;-69
2022/10/23 10:37:44;;;;;;;17.87;10.88;;;;;;;15.12;100.00;99360.13;4451114;32;20176;-69
2022/10/23 10:40:27;;;;;;;22.30;14.50;;;;;;;15.08;100.00;99356.97;4438289;32;20186;-68
2022/10/23 10:43:02;;;;;;;22.70;13.85;;;;;;;14.88;100.00;99344.91;4451163;32;20138;-69
2022/10/23 10:45:33;;;;;;;23.95;14.95;;;;;;;15.16;100.00;99335.09;4451055;32;20128;-69
2022/10/23 10:48:37;;;;;;;28.10;17.08;;;;;;;14.69;100.00;99322.16;4438201;32;20247;-68
2022/10/23 10:51:38;;;;;;;39.28;20.62;;;;;;;14.86;100.00;99320.50;4451117;32;20101;-69
2022/10/23 10:54:11;;;;;;;37.15;20.02;;;;;;;14.82;100.00;99314.69;4448782;32;20133;-68
2022/10/23 10:56:41;;;;;;;43.17;22.52;;;;;;;15.29;100.00;99316.22;4450556;32;20124;-69
2022/10/23 10:59:16;;;;;;;47.97;24.63;;;;;;;15.64;100.00;99314.47;4438339;32;20111;-69
2022/10/23 11:01:49;;;;;;;48.97;24.05;;;;;;;15.83;100.00;99305.50;4437935;32;20113;-68
2022/10/23 11:04:36;;;;;;;49.55;25.83;;;;;;;15.59;100.00;99300.91;4435234;32;20121;-69
2022/10/23 11:07:10;;;;;;;57.20;27.58;;;;;;;15.04;100.00;99297.56;4435002;32;20089;-69
2022/10/23 11:09:38;;;;;;;56.90;26.75;;;;;;;14.94;100.00;99294.16;4425669;32;20555;-68
2022/10/23 11:12:05;;;;;;;52.40;24.17;;;;;;;14.84;100.00;99301.34;4484316;31;20135;-69
2022/10/23 11:14:33;;;;;;;53.92;26.05;;;;;;;15.17;100.00;99297.16;4485941;31;20115;-69
2022/10/23 11:17:15;;;;;;;55.15;25.62;;;;;;;15.05;100.00;99301.84;4486334;31;20164;-69
2022/10/23 11:19:46;;;;;;;55.55;27.90;;;;;;;15.38;100.00;99302.09;4485089;32;20634;-69
2022/10/23 11:22:19;;;;;;;50.33;25.65;;;;;;;15.35;100.00;99289.22;4486173;31;20136;-68
2022/10/23 11:25:17;;;;;;;51.13;25.73;;;;;;;15.61;100.00;99302.41;4486460;32;20094;-69
2022/10/23 11:27:59;;;;;;;48.53;24.27;;;;;;;15.55;100.00;99299.56;4484492;32;20080;-69
2022/10/23 11:30:53;;;;;;;51.78;24.40;;;;;;;15.84;100.00;99301.06;4486451;31;20111;-69
2022/10/23 11:33:43;;;;;;;48.35;25.37;;;;;;;15.81;100.00;99309.31;4486015;31;20116;-69
2022/10/23 11:36:40;;;;;;;49.38;23.95;;;;;;;15.59;100.00;99301.75;4486285;32;20130;-69
2022/10/23 11:39:26;;;;;;;44.88;24.98;;;;;;;15.87;100.00;99300.75;4484845;32;20548;-69
2022/10/23 11:41:57;;;;;;;49.55;26.58;;;;;;;15.94;100.00;99301.75;4486368;31;20103;-69